sensor_id;sensor_type;location;lat;lon;timestamp;temperature;humidity
46562;DHT22;32289;42.688;23.330;2022-08-19T00:01:11;21.60;92.90
46562;DHT22;32289;42.688;23.330;2022-08-19T00:04:52;21.60;93.10
46562;DHT22;32289;42.688;23.330;2022-08-19T00:08:32;21.50;93.70
46562;DHT22;32289;42.688;23.330;2022-08-19T00:12:13;21.50;93.60
46562;DHT22;32289;42.688;23.330;2022-08-19T00:15:54;21.50;93.90
46562;DHT22;32289;42.688;23.330;2022-08-19T00:19:36;21.60;93.90
46562;DHT22;32289;42.688;23.330;2022-08-19T00:23:17;21.40;95.10
46562;DHT22;32289;42.688;23.330;2022-08-19T00:26:58;21.30;95.20
46562;DHT22;32289;42.688;23.330;2022-08-19T00:30:39;21.30;95.50
46562;DHT22;32289;42.688;23.330;2022-08-19T00:34:21;21.20;95.60
46562;DHT22;32289;42.688;23.330;2022-08-19T00:38:02;21.20;96.90
46562;DHT22;32289;42.688;23.330;2022-08-19T00:41:43;21.10;96.80
46562;DHT22;32289;42.688;23.330;2022-08-19T00:45:25;21.10;96.60
46562;DHT22;32289;42.688;23.330;2022-08-19T00:49:28;21.00;97.50
46562;DHT22;32289;42.688;23.330;2022-08-19T00:53:06;21.00;97.30
46562;DHT22;32289;42.688;23.330;2022-08-19T00:56:47;20.90;96.80
46562;DHT22;32289;42.688;23.330;2022-08-19T01:00:28;20.80;97.00
46562;DHT22;32289;42.688;23.330;2022-08-19T01:04:09;20.80;98.10
46562;DHT22;32289;42.688;23.330;2022-08-19T01:07:50;20.90;98.10
46562;DHT22;32289;42.688;23.330;2022-08-19T01:11:31;20.80;97.70
46562;DHT22;32289;42.688;23.330;2022-08-19T01:15:14;20.60;98.20
46562;DHT22;32289;42.688;23.330;2022-08-19T01:18:56;20.30;99.00
46562;DHT22;32289;42.688;23.330;2022-08-19T01:26:21;20.40;99.70
46562;DHT22;32289;42.688;23.330;2022-08-19T01:30:03;20.30;99.30
46562;DHT22;32289;42.688;23.330;2022-08-19T01:33:44;20.20;99.90
46562;DHT22;32289;42.688;23.330;2022-08-19T01:37:24;20.20;99.90
46562;DHT22;32289;42.688;23.330;2022-08-19T01:41:05;20.20;99.90
46562;DHT22;32289;42.688;23.330;2022-08-19T01:44:46;20.20;99.70
46562;DHT22;32289;42.688;23.330;2022-08-19T01:48:26;20.30;98.30
46562;DHT22;32289;42.688;23.330;2022-08-19T01:52:09;20.30;98.90
46562;DHT22;32289;42.688;23.330;2022-08-19T01:55:50;20.50;98.30
46562;DHT22;32289;42.688;23.330;2022-08-19T01:59:31;20.40;98.40
46562;DHT22;32289;42.688;23.330;2022-08-19T02:03:12;20.50;99.40
46562;DHT22;32289;42.688;23.330;2022-08-19T02:06:53;20.30;99.50
46562;DHT22;32289;42.688;23.330;2022-08-19T02:10:38;20.40;99.90
46562;DHT22;32289;42.688;23.330;2022-08-19T02:14:18;20.40;99.70
46562;DHT22;32289;42.688;23.330;2022-08-19T02:17:59;20.20;99.90
46562;DHT22;32289;42.688;23.330;2022-08-19T02:21:39;20.00;99.90
46562;DHT22;32289;42.688;23.330;2022-08-19T02:25:20;20.10;99.90
46562;DHT22;32289;42.688;23.330;2022-08-19T02:29:01;20.00;99.90
46562;DHT22;32289;42.688;23.330;2022-08-19T02:32:41;19.90;99.90
46562;DHT22;32289;42.688;23.330;2022-08-19T02:36:23;19.80;99.90
46562;DHT22;32289;42.688;23.330;2022-08-19T02:40:04;19.80;99.90
46562;DHT22;32289;42.688;23.330;2022-08-19T02:43:45;19.80;99.90
46562;DHT22;32289;42.688;23.330;2022-08-19T02:47:26;19.80;99.90
46562;DHT22;32289;42.688;23.330;2022-08-19T02:51:06;19.80;99.90
46562;DHT22;32289;42.688;23.330;2022-08-19T02:54:47;19.50;99.90
46562;DHT22;32289;42.688;23.330;2022-08-19T02:58:27;19.50;99.90
46562;DHT22;32289;42.688;23.330;2022-08-19T03:02:08;19.40;99.90
46562;DHT22;32289;42.688;23.330;2022-08-19T03:05:48;19.50;99.90
46562;DHT22;32289;42.688;23.330;2022-08-19T03:09:29;19.40;99.90
46562;DHT22;32289;42.688;23.330;2022-08-19T03:13:11;19.30;99.90
46562;DHT22;32289;42.688;23.330;2022-08-19T03:16:52;19.20;99.90
46562;DHT22;32289;42.688;23.330;2022-08-19T03:20:32;19.30;99.90
46562;DHT22;32289;42.688;23.330;2022-08-19T03:24:13;19.30;99.90
46562;DHT22;32289;42.688;23.330;2022-08-19T03:27:54;19.30;99.90
46562;DHT22;32289;42.688;23.330;2022-08-19T03:31:34;19.40;99.90
46562;DHT22;32289;42.688;23.330;2022-08-19T03:35:15;19.30;99.90
46562;DHT22;32289;42.688;23.330;2022-08-19T03:38:57;19.40;99.90
46562;DHT22;32289;42.688;23.330;2022-08-19T03:42:38;19.40;99.90
46562;DHT22;32289;42.688;23.330;2022-08-19T03:46:20;19.30;99.90
46562;DHT22;32289;42.688;23.330;2022-08-19T03:50:01;19.30;99.90
46562;DHT22;32289;42.688;23.330;2022-08-19T03:53:42;19.40;99.90
46562;DHT22;32289;42.688;23.330;2022-08-19T03:57:23;19.40;99.90
46562;DHT22;32289;42.688;23.330;2022-08-19T04:01:06;19.40;99.90
46562;DHT22;32289;42.688;23.330;2022-08-19T04:04:47;19.30;99.90
46562;DHT22;32289;42.688;23.330;2022-08-19T04:08:27;19.50;99.90
46562;DHT22;32289;42.688;23.330;2022-08-19T04:12:08;19.60;99.90
46562;DHT22;32289;42.688;23.330;2022-08-19T04:15:48;19.60;99.90
46562;DHT22;32289;42.688;23.330;2022-08-19T04:19:30;19.60;99.90
46562;DHT22;32289;42.688;23.330;2022-08-19T04:23:11;19.70;99.90
46562;DHT22;32289;42.688;23.330;2022-08-19T04:26:52;19.70;99.90
46562;DHT22;32289;42.688;23.330;2022-08-19T04:30:40;19.90;99.90
46562;DHT22;32289;42.688;23.330;2022-08-19T04:34:23;19.80;99.90
46562;DHT22;32289;42.688;23.330;2022-08-19T04:38:04;19.70;99.90
46562;DHT22;32289;42.688;23.330;2022-08-19T04:41:45;19.80;99.90
46562;DHT22;32289;42.688;23.330;2022-08-19T04:45:44;19.80;99.90
46562;DHT22;32289;42.688;23.330;2022-08-19T04:49:24;20.00;99.90
46562;DHT22;32289;42.688;23.330;2022-08-19T04:53:05;20.30;99.90
46562;DHT22;32289;42.688;23.330;2022-08-19T04:56:46;20.30;99.90
46562;DHT22;32289;42.688;23.330;2022-08-19T05:00:26;20.40;99.90
46562;DHT22;32289;42.688;23.330;2022-08-19T05:04:07;20.60;99.90
46562;DHT22;32289;42.688;23.330;2022-08-19T05:07:48;20.90;99.50
46562;DHT22;32289;42.688;23.330;2022-08-19T05:11:29;23.20;92.40
46562;DHT22;32289;42.688;23.330;2022-08-19T05:15:10;24.50;84.90
46562;DHT22;32289;42.688;23.330;2022-08-19T05:18:51;22.80;91.30
46562;DHT22;32289;42.688;23.330;2022-08-19T05:22:50;21.80;94.70
46562;DHT22;32289;42.688;23.330;2022-08-19T05:26:30;21.70;95.10
46562;DHT22;32289;42.688;23.330;2022-08-19T05:30:11;22.00;93.80
46562;DHT22;32289;42.688;23.330;2022-08-19T05:33:52;22.60;93.20
46562;DHT22;32289;42.688;23.330;2022-08-19T05:37:32;25.00;81.10
46562;DHT22;32289;42.688;23.330;2022-08-19T05:41:13;26.20;74.70
46562;DHT22;32289;42.688;23.330;2022-08-19T05:44:55;27.00;69.40
46562;DHT22;32289;42.688;23.330;2022-08-19T05:48:36;27.70;68.80
46562;DHT22;32289;42.688;23.330;2022-08-19T05:52:18;27.70;66.10
46562;DHT22;32289;42.688;23.330;2022-08-19T05:56:09;28.00;65.60
46562;DHT22;32289;42.688;23.330;2022-08-19T05:59:50;27.40;66.60
46562;DHT22;32289;42.688;23.330;2022-08-19T06:03:32;26.90;68.00
46562;DHT22;32289;42.688;23.330;2022-08-19T06:07:13;28.30;64.70
46562;DHT22;32289;42.688;23.330;2022-08-19T06:10:55;27.60;65.50
46562;DHT22;32289;42.688;23.330;2022-08-19T06:14:36;29.00;65.10
46562;DHT22;32289;42.688;23.330;2022-08-19T06:18:16;29.00;62.50
46562;DHT22;32289;42.688;23.330;2022-08-19T06:21:58;28.70;61.40
46562;DHT22;32289;42.688;23.330;2022-08-19T06:25:39;28.80;62.80
46562;DHT22;32289;42.688;23.330;2022-08-19T06:29:21;27.20;65.80
46562;DHT22;32289;42.688;23.330;2022-08-19T06:33:02;26.50;69.40
46562;DHT22;32289;42.688;23.330;2022-08-19T06:36:44;27.20;69.00
46562;DHT22;32289;42.688;23.330;2022-08-19T06:40:25;27.80;65.50
46562;DHT22;32289;42.688;23.330;2022-08-19T06:44:09;28.00;64.40
46562;DHT22;32289;42.688;23.330;2022-08-19T06:47:49;29.20;59.60
46562;DHT22;32289;42.688;23.330;2022-08-19T06:51:34;30.30;60.20
46562;DHT22;32289;42.688;23.330;2022-08-19T06:55:15;30.20;59.30
46562;DHT22;32289;42.688;23.330;2022-08-19T06:58:56;28.10;63.80
46562;DHT22;32289;42.688;23.330;2022-08-19T07:02:37;29.30;61.30
46562;DHT22;32289;42.688;23.330;2022-08-19T07:06:18;29.50;61.80
46562;DHT22;32289;42.688;23.330;2022-08-19T07:10:00;28.60;62.30
46562;DHT22;32289;42.688;23.330;2022-08-19T07:13:41;29.80;60.20
46562;DHT22;32289;42.688;23.330;2022-08-19T07:17:23;30.60;59.20
46562;DHT22;32289;42.688;23.330;2022-08-19T07:21:08;31.80;57.10
46562;DHT22;32289;42.688;23.330;2022-08-19T07:24:49;31.60;56.60
46562;DHT22;32289;42.688;23.330;2022-08-19T07:28:29;31.40;57.10
46562;DHT22;32289;42.688;23.330;2022-08-19T07:32:10;32.10;56.40
46562;DHT22;32289;42.688;23.330;2022-08-19T07:35:51;32.50;54.20
46562;DHT22;32289;42.688;23.330;2022-08-19T07:39:33;32.40;54.80
46562;DHT22;32289;42.688;23.330;2022-08-19T07:43:14;31.70;55.40
46562;DHT22;32289;42.688;23.330;2022-08-19T07:46:56;34.40;51.20
46562;DHT22;32289;42.688;23.330;2022-08-19T07:50:36;34.60;50.70
46562;DHT22;32289;42.688;23.330;2022-08-19T07:54:17;35.80;48.60
46562;DHT22;32289;42.688;23.330;2022-08-19T07:57:58;35.90;48.20
46562;DHT22;32289;42.688;23.330;2022-08-19T08:01:39;35.00;51.10
46562;DHT22;32289;42.688;23.330;2022-08-19T08:05:20;33.20;51.60
46562;DHT22;32289;42.688;23.330;2022-08-19T08:09:23;34.60;51.70
46562;DHT22;32289;42.688;23.330;2022-08-19T08:13:04;35.20;48.70
46562;DHT22;32289;42.688;23.330;2022-08-19T08:16:45;34.00;51.00
46562;DHT22;32289;42.688;23.330;2022-08-19T08:20:26;34.60;50.90
46562;DHT22;32289;42.688;23.330;2022-08-19T08:24:07;35.50;50.10
46562;DHT22;32289;42.688;23.330;2022-08-19T08:27:47;35.10;50.00
46562;DHT22;32289;42.688;23.330;2022-08-19T08:31:29;35.10;50.20
46562;DHT22;32289;42.688;23.330;2022-08-19T08:35:11;35.80;48.40
46562;DHT22;32289;42.688;23.330;2022-08-19T08:38:52;36.10;48.50
46562;DHT22;32289;42.688;23.330;2022-08-19T08:42:34;35.50;48.20
46562;DHT22;32289;42.688;23.330;2022-08-19T08:46:22;35.30;49.70
46562;DHT22;32289;42.688;23.330;2022-08-19T08:54:02;38.10;45.80
46562;DHT22;32289;42.688;23.330;2022-08-19T09:01:29;37.60;46.00
46562;DHT22;32289;42.688;23.330;2022-08-19T09:05:10;36.30;46.50
46562;DHT22;32289;42.688;23.330;2022-08-19T09:12:44;35.90;46.00
46562;DHT22;32289;42.688;23.330;2022-08-19T09:16:29;36.40;45.20
46562;DHT22;32289;42.688;23.330;2022-08-19T09:23:51;36.40;44.10
46562;DHT22;32289;42.688;23.330;2022-08-19T09:27:32;36.40;44.00
46562;DHT22;32289;42.688;23.330;2022-08-19T09:31:13;36.20;44.80
46562;DHT22;32289;42.688;23.330;2022-08-19T09:34:54;36.50;44.60
46562;DHT22;32289;42.688;23.330;2022-08-19T09:38:35;36.10;44.30
46562;DHT22;32289;42.688;23.330;2022-08-19T09:42:16;35.90;43.90
46562;DHT22;32289;42.688;23.330;2022-08-19T09:45:57;36.80;44.30
46562;DHT22;32289;42.688;23.330;2022-08-19T09:49:38;36.40;43.20
46562;DHT22;32289;42.688;23.330;2022-08-19T09:53:19;36.50;44.00
46562;DHT22;32289;42.688;23.330;2022-08-19T09:57:03;37.70;41.30
46562;DHT22;32289;42.688;23.330;2022-08-19T10:00:43;37.80;41.70
46562;DHT22;32289;42.688;23.330;2022-08-19T10:04:26;38.20;40.00
46562;DHT22;32289;42.688;23.330;2022-08-19T10:08:28;37.80;40.70
46562;DHT22;32289;42.688;23.330;2022-08-19T10:12:09;36.40;42.30
46562;DHT22;32289;42.688;23.330;2022-08-19T10:15:49;36.70;41.70
46562;DHT22;32289;42.688;23.330;2022-08-19T10:19:33;37.80;40.70
46562;DHT22;32289;42.688;23.330;2022-08-19T10:23:16;37.50;41.80
46562;DHT22;32289;42.688;23.330;2022-08-19T10:26:57;36.20;44.10
46562;DHT22;32289;42.688;23.330;2022-08-19T10:30:38;37.50;42.50
46562;DHT22;32289;42.688;23.330;2022-08-19T10:34:19;37.00;42.00
46562;DHT22;32289;42.688;23.330;2022-08-19T10:37:59;37.00;43.10
46562;DHT22;32289;42.688;23.330;2022-08-19T10:41:42;37.30;42.20
46562;DHT22;32289;42.688;23.330;2022-08-19T10:45:23;36.50;44.20
46562;DHT22;32289;42.688;23.330;2022-08-19T10:49:06;37.20;43.00
46562;DHT22;32289;42.688;23.330;2022-08-19T10:52:47;37.30;41.70
46562;DHT22;32289;42.688;23.330;2022-08-19T10:56:28;36.70;42.90
46562;DHT22;32289;42.688;23.330;2022-08-19T11:00:27;37.80;41.80
46562;DHT22;32289;42.688;23.330;2022-08-19T11:04:07;37.10;42.10
46562;DHT22;32289;42.688;23.330;2022-08-19T11:07:53;37.80;41.60
46562;DHT22;32289;42.688;23.330;2022-08-19T11:11:34;38.70;41.10
46562;DHT22;32289;42.688;23.330;2022-08-19T11:15:19;37.50;40.90
46562;DHT22;32289;42.688;23.330;2022-08-19T11:19:00;37.40;42.10
46562;DHT22;32289;42.688;23.330;2022-08-19T11:22:41;38.10;41.30
46562;DHT22;32289;42.688;23.330;2022-08-19T11:26:22;37.70;42.70
46562;DHT22;32289;42.688;23.330;2022-08-19T11:30:03;37.90;42.60
46562;DHT22;32289;42.688;23.330;2022-08-19T11:33:44;38.00;41.70
46562;DHT22;32289;42.688;23.330;2022-08-19T11:37:26;38.30;40.90
46562;DHT22;32289;42.688;23.330;2022-08-19T11:41:07;37.60;41.20
46562;DHT22;32289;42.688;23.330;2022-08-19T11:44:48;37.90;41.20
46562;DHT22;32289;42.688;23.330;2022-08-19T11:48:28;37.20;41.80
46562;DHT22;32289;42.688;23.330;2022-08-19T11:52:09;36.20;43.20
46562;DHT22;32289;42.688;23.330;2022-08-19T11:55:53;35.60;43.80
46562;DHT22;32289;42.688;23.330;2022-08-19T11:59:36;36.20;44.60
46562;DHT22;32289;42.688;23.330;2022-08-19T12:03:17;36.40;42.30
46562;DHT22;32289;42.688;23.330;2022-08-19T12:06:59;36.80;43.40
46562;DHT22;32289;42.688;23.330;2022-08-19T12:10:40;36.20;43.30
46562;DHT22;32289;42.688;23.330;2022-08-19T12:14:22;36.70;42.80
46562;DHT22;32289;42.688;23.330;2022-08-19T12:18:04;35.80;43.40
46562;DHT22;32289;42.688;23.330;2022-08-19T12:21:44;36.10;43.30
46562;DHT22;32289;42.688;23.330;2022-08-19T12:25:25;36.30;42.90
46562;DHT22;32289;42.688;23.330;2022-08-19T12:29:05;36.30;43.30
46562;DHT22;32289;42.688;23.330;2022-08-19T12:32:48;36.30;42.80
46562;DHT22;32289;42.688;23.330;2022-08-19T12:36:29;35.90;43.30
46562;DHT22;32289;42.688;23.330;2022-08-19T12:40:10;35.50;43.60
46562;DHT22;32289;42.688;23.330;2022-08-19T12:43:51;35.90;43.40
46562;DHT22;32289;42.688;23.330;2022-08-19T12:47:32;36.00;42.90
46562;DHT22;32289;42.688;23.330;2022-08-19T12:51:14;35.40;44.10
46562;DHT22;32289;42.688;23.330;2022-08-19T12:54:55;35.10;43.80
46562;DHT22;32289;42.688;23.330;2022-08-19T12:58:36;34.90;44.70
46562;DHT22;32289;42.688;23.330;2022-08-19T13:02:17;35.10;44.00
46562;DHT22;32289;42.688;23.330;2022-08-19T13:05:57;35.20;43.60
46562;DHT22;32289;42.688;23.330;2022-08-19T13:09:38;34.50;45.10
46562;DHT22;32289;42.688;23.330;2022-08-19T13:13:21;33.80;46.00
46562;DHT22;32289;42.688;23.330;2022-08-19T13:17:02;34.00;45.20
46562;DHT22;32289;42.688;23.330;2022-08-19T13:20:42;33.70;45.60
46562;DHT22;32289;42.688;23.330;2022-08-19T13:24:23;34.30;45.40
46562;DHT22;32289;42.688;23.330;2022-08-19T13:28:04;33.80;45.60
46562;DHT22;32289;42.688;23.330;2022-08-19T13:31:46;33.60;45.40
46562;DHT22;32289;42.688;23.330;2022-08-19T13:35:49;34.10;45.50
46562;DHT22;32289;42.688;23.330;2022-08-19T13:39:31;33.80;45.50
46562;DHT22;32289;42.688;23.330;2022-08-19T13:43:12;33.60;45.70
46562;DHT22;32289;42.688;23.330;2022-08-19T13:46:53;33.60;45.30
46562;DHT22;32289;42.688;23.330;2022-08-19T13:50:44;34.00;44.70
46562;DHT22;32289;42.688;23.330;2022-08-19T13:54:24;33.90;44.90
46562;DHT22;32289;42.688;23.330;2022-08-19T13:58:05;34.00;45.50
46562;DHT22;32289;42.688;23.330;2022-08-19T14:01:46;33.80;45.40
46562;DHT22;32289;42.688;23.330;2022-08-19T14:05:27;34.00;45.20
46562;DHT22;32289;42.688;23.330;2022-08-19T14:09:08;34.10;44.90
46562;DHT22;32289;42.688;23.330;2022-08-19T14:12:49;33.80;45.50
46562;DHT22;32289;42.688;23.330;2022-08-19T14:16:29;33.70;45.40
46562;DHT22;32289;42.688;23.330;2022-08-19T14:20:11;34.00;46.20
46562;DHT22;32289;42.688;23.330;2022-08-19T14:23:52;33.80;46.00
46562;DHT22;32289;42.688;23.330;2022-08-19T14:27:36;33.90;45.40
46562;DHT22;32289;42.688;23.330;2022-08-19T14:31:17;34.10;45.60
46562;DHT22;32289;42.688;23.330;2022-08-19T14:35:00;33.70;46.20
46562;DHT22;32289;42.688;23.330;2022-08-19T14:38:40;33.50;46.40
46562;DHT22;32289;42.688;23.330;2022-08-19T14:42:21;33.70;46.40
46562;DHT22;32289;42.688;23.330;2022-08-19T14:46:02;33.40;46.40
46562;DHT22;32289;42.688;23.330;2022-08-19T14:49:42;33.80;46.50
46562;DHT22;32289;42.688;23.330;2022-08-19T14:53:24;33.60;46.70
46562;DHT22;32289;42.688;23.330;2022-08-19T14:57:04;33.80;46.40
46562;DHT22;32289;42.688;23.330;2022-08-19T15:00:45;33.50;47.10
46562;DHT22;32289;42.688;23.330;2022-08-19T15:04:25;33.30;46.60
46562;DHT22;32289;42.688;23.330;2022-08-19T15:08:06;33.30;46.90
46562;DHT22;32289;42.688;23.330;2022-08-19T15:11:46;33.00;47.50
46562;DHT22;32289;42.688;23.330;2022-08-19T15:15:29;32.70;48.20
46562;DHT22;32289;42.688;23.330;2022-08-19T15:19:10;33.00;48.00
46562;DHT22;32289;42.688;23.330;2022-08-19T15:22:51;33.10;48.50
46562;DHT22;32289;42.688;23.330;2022-08-19T15:26:32;33.00;48.10
46562;DHT22;32289;42.688;23.330;2022-08-19T15:30:18;33.10;47.70
46562;DHT22;32289;42.688;23.330;2022-08-19T15:33:59;33.00;47.40
46562;DHT22;32289;42.688;23.330;2022-08-19T15:37:40;33.00;47.60
46562;DHT22;32289;42.688;23.330;2022-08-19T15:41:22;32.80;47.90
46562;DHT22;32289;42.688;23.330;2022-08-19T15:45:04;32.90;47.90
46562;DHT22;32289;42.688;23.330;2022-08-19T15:48:44;32.80;47.40
46562;DHT22;32289;42.688;23.330;2022-08-19T15:52:25;32.80;47.70
46562;DHT22;32289;42.688;23.330;2022-08-19T15:56:06;32.70;47.50
46562;DHT22;32289;42.688;23.330;2022-08-19T15:59:49;32.60;47.90
46562;DHT22;32289;42.688;23.330;2022-08-19T16:03:49;32.60;48.10
46562;DHT22;32289;42.688;23.330;2022-08-19T16:07:48;32.60;48.30
46562;DHT22;32289;42.688;23.330;2022-08-19T16:11:31;32.30;48.30
46562;DHT22;32289;42.688;23.330;2022-08-19T16:15:15;32.40;48.40
46562;DHT22;32289;42.688;23.330;2022-08-19T16:18:56;32.50;48.40
46562;DHT22;32289;42.688;23.330;2022-08-19T16:22:37;32.40;48.20
46562;DHT22;32289;42.688;23.330;2022-08-19T16:26:19;32.30;48.80
46562;DHT22;32289;42.688;23.330;2022-08-19T16:29:59;32.20;49.20
46562;DHT22;32289;42.688;23.330;2022-08-19T16:33:40;32.00;50.10
46562;DHT22;32289;42.688;23.330;2022-08-19T16:37:20;31.90;49.50
46562;DHT22;32289;42.688;23.330;2022-08-19T16:41:02;31.80;49.90
46562;DHT22;32289;42.688;23.330;2022-08-19T16:44:43;31.60;50.40
46562;DHT22;32289;42.688;23.330;2022-08-19T16:48:26;31.50;50.60
46562;DHT22;32289;42.688;23.330;2022-08-19T16:52:09;31.40;50.90
46562;DHT22;32289;42.688;23.330;2022-08-19T16:55:49;31.30;51.10
46562;DHT22;32289;42.688;23.330;2022-08-19T16:59:34;31.10;51.60
46562;DHT22;32289;42.688;23.330;2022-08-19T17:03:15;31.00;51.50
46562;DHT22;32289;42.688;23.330;2022-08-19T17:06:56;30.90;51.10
46562;DHT22;32289;42.688;23.330;2022-08-19T17:10:37;30.80;51.70
46562;DHT22;32289;42.688;23.330;2022-08-19T17:14:17;30.70;52.10
46562;DHT22;32289;42.688;23.330;2022-08-19T17:17:59;30.50;52.60
46562;DHT22;32289;42.688;23.330;2022-08-19T17:21:40;30.40;52.80
46562;DHT22;32289;42.688;23.330;2022-08-19T17:25:20;30.30;54.40
46562;DHT22;32289;42.688;23.330;2022-08-19T17:29:01;30.00;55.10
46562;DHT22;32289;42.688;23.330;2022-08-19T17:32:41;29.90;55.10
46562;DHT22;32289;42.688;23.330;2022-08-19T17:36:22;29.70;56.30
46562;DHT22;32289;42.688;23.330;2022-08-19T17:40:04;29.60;57.60
46562;DHT22;32289;42.688;23.330;2022-08-19T17:43:46;29.40;59.30
46562;DHT22;32289;42.688;23.330;2022-08-19T17:47:26;29.20;59.60
46562;DHT22;32289;42.688;23.330;2022-08-19T17:51:15;29.10;60.30
46562;DHT22;32289;42.688;23.330;2022-08-19T17:54:56;29.00;60.60
46562;DHT22;32289;42.688;23.330;2022-08-19T17:58:36;28.70;60.90
46562;DHT22;32289;42.688;23.330;2022-08-19T18:02:19;28.60;61.60
46562;DHT22;32289;42.688;23.330;2022-08-19T18:06:00;28.50;61.00
46562;DHT22;32289;42.688;23.330;2022-08-19T18:09:41;28.20;62.00
46562;DHT22;32289;42.688;23.330;2022-08-19T18:13:21;28.00;62.30
46562;DHT22;32289;42.688;23.330;2022-08-19T18:17:04;27.90;63.40
46562;DHT22;32289;42.688;23.330;2022-08-19T18:20:48;27.80;64.00
46562;DHT22;32289;42.688;23.330;2022-08-19T18:24:28;27.60;64.50
46562;DHT22;32289;42.688;23.330;2022-08-19T18:28:09;27.50;65.10
46562;DHT22;32289;42.688;23.330;2022-08-19T18:31:53;27.50;65.10
46562;DHT22;32289;42.688;23.330;2022-08-19T18:35:35;27.50;65.80
46562;DHT22;32289;42.688;23.330;2022-08-19T18:39:18;27.20;66.20
46562;DHT22;32289;42.688;23.330;2022-08-19T18:43:17;27.10;66.20
46562;DHT22;32289;42.688;23.330;2022-08-19T18:47:24;27.20;67.20
46562;DHT22;32289;42.688;23.330;2022-08-19T18:51:23;27.00;67.40
46562;DHT22;32289;42.688;23.330;2022-08-19T18:55:05;26.70;67.00
46562;DHT22;32289;42.688;23.330;2022-08-19T18:58:46;26.60;67.30
46562;DHT22;32289;42.688;23.330;2022-08-19T19:02:27;26.50;68.30
46562;DHT22;32289;42.688;23.330;2022-08-19T19:06:08;26.60;67.80
46562;DHT22;32289;42.688;23.330;2022-08-19T19:09:51;26.80;68.10
46562;DHT22;32289;42.688;23.330;2022-08-19T19:13:32;26.60;69.00
46562;DHT22;32289;42.688;23.330;2022-08-19T19:17:13;26.40;69.80
46562;DHT22;32289;42.688;23.330;2022-08-19T19:20:54;26.20;70.40
46562;DHT22;32289;42.688;23.330;2022-08-19T19:24:37;26.10;71.10
46562;DHT22;32289;42.688;23.330;2022-08-19T19:28:19;26.00;70.60
46562;DHT22;32289;42.688;23.330;2022-08-19T19:32:05;26.00;71.40
46562;DHT22;32289;42.688;23.330;2022-08-19T19:35:46;26.00;71.90
46562;DHT22;32289;42.688;23.330;2022-08-19T19:39:27;25.90;72.00
46562;DHT22;32289;42.688;23.330;2022-08-19T19:43:07;25.90;72.30
46562;DHT22;32289;42.688;23.330;2022-08-19T19:46:48;25.70;72.60
46562;DHT22;32289;42.688;23.330;2022-08-19T19:50:28;25.70;73.20
46562;DHT22;32289;42.688;23.330;2022-08-19T19:54:11;25.60;74.00
46562;DHT22;32289;42.688;23.330;2022-08-19T19:57:54;25.50;75.60
46562;DHT22;32289;42.688;23.330;2022-08-19T20:01:36;25.50;74.50
46562;DHT22;32289;42.688;23.330;2022-08-19T20:05:17;25.50;75.40
46562;DHT22;32289;42.688;23.330;2022-08-19T20:09:00;25.40;76.70
46562;DHT22;32289;42.688;23.330;2022-08-19T20:15:05;25.20;78.00
46562;DHT22;32289;42.688;23.330;2022-08-19T20:18:46;25.40;77.90
46562;DHT22;32289;42.688;23.330;2022-08-19T20:22:27;25.40;76.70
46562;DHT22;32289;42.688;23.330;2022-08-19T20:26:09;25.40;76.50
46562;DHT22;32289;42.688;23.330;2022-08-19T20:29:49;25.40;76.80
46562;DHT22;32289;42.688;23.330;2022-08-19T20:33:30;25.30;77.70
46562;DHT22;32289;42.688;23.330;2022-08-19T20:37:11;25.20;80.00
46562;DHT22;32289;42.688;23.330;2022-08-19T20:40:52;25.20;81.60
46562;DHT22;32289;42.688;23.330;2022-08-19T20:44:32;25.00;79.80
46562;DHT22;32289;42.688;23.330;2022-08-19T20:48:13;25.00;78.80
46562;DHT22;32289;42.688;23.330;2022-08-19T20:51:55;25.10;78.40
46562;DHT22;32289;42.688;23.330;2022-08-19T20:55:36;25.00;78.80
46562;DHT22;32289;42.688;23.330;2022-08-19T20:59:17;25.00;77.40
46562;DHT22;32289;42.688;23.330;2022-08-19T21:02:59;25.00;77.70
46562;DHT22;32289;42.688;23.330;2022-08-19T21:06:40;25.00;76.80
46562;DHT22;32289;42.688;23.330;2022-08-19T21:10:21;24.80;77.10
46562;DHT22;32289;42.688;23.330;2022-08-19T21:14:02;24.60;77.40
46562;DHT22;32289;42.688;23.330;2022-08-19T21:17:43;24.50;77.40
46562;DHT22;32289;42.688;23.330;2022-08-19T21:21:26;24.50;77.10
46562;DHT22;32289;42.688;23.330;2022-08-19T21:25:07;24.50;77.00
46562;DHT22;32289;42.688;23.330;2022-08-19T21:28:47;24.60;75.80
46562;DHT22;32289;42.688;23.330;2022-08-19T21:32:28;24.60;75.20
46562;DHT22;32289;42.688;23.330;2022-08-19T21:36:09;24.50;75.60
46562;DHT22;32289;42.688;23.330;2022-08-19T21:39:50;24.50;76.00
46562;DHT22;32289;42.688;23.330;2022-08-19T21:43:31;24.40;76.30
46562;DHT22;32289;42.688;23.330;2022-08-19T21:47:12;24.40;76.90
46562;DHT22;32289;42.688;23.330;2022-08-19T21:50:52;24.30;77.10
46562;DHT22;32289;42.688;23.330;2022-08-19T21:54:33;24.40;77.30
46562;DHT22;32289;42.688;23.330;2022-08-19T21:58:14;24.30;77.20
46562;DHT22;32289;42.688;23.330;2022-08-19T22:01:55;24.30;76.90
46562;DHT22;32289;42.688;23.330;2022-08-19T22:05:36;24.30;77.00
46562;DHT22;32289;42.688;23.330;2022-08-19T22:09:16;24.30;76.70
46562;DHT22;32289;42.688;23.330;2022-08-19T22:12:57;24.30;76.40
46562;DHT22;32289;42.688;23.330;2022-08-19T22:16:38;24.30;76.40
46562;DHT22;32289;42.688;23.330;2022-08-19T22:20:21;24.30;76.40
46562;DHT22;32289;42.688;23.330;2022-08-19T22:24:02;24.20;76.40
46562;DHT22;32289;42.688;23.330;2022-08-19T22:27:43;24.30;75.80
46562;DHT22;32289;42.688;23.330;2022-08-19T22:31:24;24.40;75.40
46562;DHT22;32289;42.688;23.330;2022-08-19T22:35:05;24.40;74.90
46562;DHT22;32289;42.688;23.330;2022-08-19T22:38:47;24.40;74.50
46562;DHT22;32289;42.688;23.330;2022-08-19T22:42:28;24.40;74.50
46562;DHT22;32289;42.688;23.330;2022-08-19T22:46:11;24.30;74.80
46562;DHT22;32289;42.688;23.330;2022-08-19T22:49:51;24.30;74.70
46562;DHT22;32289;42.688;23.330;2022-08-19T22:53:34;24.30;74.70
46562;DHT22;32289;42.688;23.330;2022-08-19T22:57:17;24.20;75.10
46562;DHT22;32289;42.688;23.330;2022-08-19T23:01:01;24.20;74.80
46562;DHT22;32289;42.688;23.330;2022-08-19T23:04:42;24.20;74.50
46562;DHT22;32289;42.688;23.330;2022-08-19T23:08:23;24.20;74.80
46562;DHT22;32289;42.688;23.330;2022-08-19T23:12:04;24.20;75.00
46562;DHT22;32289;42.688;23.330;2022-08-19T23:15:45;24.20;75.00
46562;DHT22;32289;42.688;23.330;2022-08-19T23:19:26;24.20;75.40